John James Audubon — WDE8037 — position and weather

sailwx.info

Track history (hours):
 
Tides and Currents Weather Stations Pressure Air Temp Water Temp Dewpoint Dewpoint Depression Visibility Wind Speed Wind Dir Waves Ship Positions

John James Audubon

Owner: Statue Cruises, Jersey City, NJ. More information available from US FCC via Universal Licensing System and Coast Guard Vessel Documentation Center.

Last reported at 2014-Oct-20 22:25 UTC. Time now 2014-Oct-22 00:13 UTC.
Position N 40°44' W 074°01'.

Length 37 m.

Type: Ship. MMSI: 367400770.

Date/timePositionNaut miles runAvg speedWind from/ knotsBaromVisibWave heightAir tempDewpointWater temp
2014-Oct-20 22:25N 40°44' W 074°01'2 1.9
2014-Oct-20 21:34N 40°42' W 074°02'2 1.7
2014-Oct-20 20:33N 40°44' W 074°01'0 0.0
2014-Oct-19 21:33N 40°44' W 074°01'2 1.7
2014-Oct-19 20:33N 40°42' W 074°01'1 0.9
2014-Oct-19 19:31N 40°42' W 074°00'0 0.0
2014-Oct-19 18:33N 40°42' W 074°00'2 2.1
2014-Oct-19 17:34N 40°41' W 074°03'2 2.1
2014-Oct-19 16:33N 40°42' W 074°00'0 0.0
2014-Oct-19 15:33N 40°42' W 074°00'2 2.1
2014-Oct-19 14:34N 40°41' W 074°03'2 2.0
2014-Oct-19 13:33N 40°42' W 074°00'0 0.0
2014-Oct-18 21:33N 40°42' W 074°00'2 1.6
2014-Oct-18 20:33N 40°41' W 074°01'2 1.6
2014-Oct-18 19:33N 40°42' W 074°00'0 0.0
2014-Oct-18 18:33N 40°42' W 074°00'2 1.5
2014-Oct-18 17:33N 40°42' W 074°02'2 1.4
2014-Oct-18 16:29N 40°42' W 074°00'0 0.0
2014-Oct-18 15:30N 40°42' W 074°00'2 2.0
2014-Oct-18 14:33N 40°41' W 074°02'2 1.8
2014-Oct-18 13:30N 40°42' W 074°00'2 0.1
2014-Oct-17 22:11N 40°44' W 074°01'2 2.5
2014-Oct-17 21:33N 40°42' W 074°01'1 0.6
2014-Oct-17 20:33N 40°42' W 074°02'1 1.3
2014-Oct-17 19:33N 40°42' W 074°00'0 0.0
2014-Oct-17 18:33N 40°42' W 074°00'2 2.1
2014-Oct-17 17:33N 40°41' W 074°03'2 2.0
2014-Oct-17 16:33N 40°42' W 074°00'0 0.0
2014-Oct-17 15:33N 40°42' W 074°00'1 0.9
2014-Oct-17 14:33N 40°42' W 074°01'1 0.9
2014-Oct-17 13:33N 40°42' W 074°00'2 0.1
2014-Oct-16 21:28N 40°44' W 074°01'3 3.1
2014-Oct-16 20:34N 40°41' W 074°02'2 1.9
2014-Oct-16 19:33N 40°42' W 074°00'0 0.0
2014-Oct-16 18:33N 40°42' W 074°00'2 1.7
2014-Oct-16 17:33N 40°41' W 074°02'2 1.8
2014-Oct-16 16:33N 40°42' W 074°00'0 0.0
2014-Oct-16 15:33N 40°42' W 074°00'2 1.9
2014-Oct-16 14:33N 40°41' W 074°02'2 1.9
2014-Oct-16 13:33N 40°42' W 074°00'2 0.1
2014-Oct-15 21:30N 40°44' W 074°01'3 3.1
2014-Oct-15 20:32N 40°41' W 074°03'2 1.7
2014-Oct-15 19:18N 40°42' W 074°00'0 0.1
2014-Oct-15 18:32N 40°42' W 074°00'2 2.1
2014-Oct-15 17:33N 40°41' W 074°03'2 1.7
2014-Oct-15 16:19N 40°42' W 074°00'2 1.2
2014-Oct-15 14:33N 40°41' W 074°03'2 1.9
2014-Oct-15 13:27N 40°42' W 074°00'2 1.8
2014-Oct-15 12:33N 40°44' W 074°01'0 0.0
2014-Oct-14 21:27N 40°44' W 074°01'2 2.6
2014-Oct-14 20:34N 40°42' W 074°01'1 1.0
2014-Oct-14 19:20N 40°42' W 074°00'0 0.0
2014-Oct-14 18:29N 40°42' W 074°00'2 2.1
2014-Oct-14 17:31N 40°41' W 074°03'2 1.7
2014-Oct-14 16:21N 40°42' W 074°00'0 0.0
2014-Oct-14 15:15N 40°42' W 074°00'1 1.8
2014-Oct-14 14:31N 40°42' W 074°02'1 1.2
2014-Oct-14 13:23N 40°42' W 074°00'2 0.1
2014-Oct-13 21:32N 40°44' W 074°01'3 2.8
2014-Oct-13 20:27N 40°41' W 074°03'2 2.2
2014-Oct-13 19:31N 40°42' W 074°00'0 0.0
2014-Oct-13 18:30N 40°42' W 074°00'2 1.9
2014-Oct-13 17:26N 40°41' W 074°03'2 2.2
2014-Oct-13 16:31N 40°42' W 074°00'0 0.0
2014-Oct-13 15:31N 40°42' W 074°00'2 2.1
2014-Oct-13 14:32N 40°41' W 074°03'2 2.1
2014-Oct-13 13:32N 40°42' W 074°00'2 1.6
2014-Oct-13 12:33N 40°44' W 074°01'0 0.0
2014-Oct-12 05:08N 40°44' W 074°01'2 2.8
2014-Oct-12 04:33N 40°42' W 074°00'1 1.3
2014-Oct-12 03:33N 40°43' W 073°59'2 2.4
2014-Oct-12 02:33N 40°44' W 074°01'1 1.0
2014-Oct-12 01:33N 40°43' W 074°01'1 0.9
2014-Oct-12 00:33N 40°42' W 074°00'1 1.0
2014-Oct-11 23:33N 40°42' W 073°59'2 2.0
2014-Oct-11 22:33N 40°44' W 074°01'1 1.4
2014-Oct-11 21:33N 40°42' W 074°00'2 2.1
2014-Oct-11 20:33N 40°41' W 074°03'2 2.1
2014-Oct-11 19:33N 40°42' W 074°00'0 0.0
2014-Oct-11 18:33N 40°42' W 074°00'1 0.9
2014-Oct-11 17:33N 40°43' W 074°01'1 0.9
2014-Oct-11 16:33N 40°42' W 074°00'0 0.0
2014-Oct-11 15:33N 40°42' W 074°00'2 1.7
2014-Oct-11 14:33N 40°41' W 074°02'2 1.5
2014-Oct-11 13:33N 40°43' W 074°01'1 0.1
2014-Oct-11 04:33N 40°42' W 074°01'1 1.5
2014-Oct-11 03:33N 40°42' W 073°59'2 2.1
2014-Oct-11 02:34N 40°44' W 074°01'3 3.4
2014-Oct-11 01:33N 40°41' W 074°01'2 1.8
2014-Oct-11 00:33N 40°42' W 074°00'1 1.1
2014-Oct-10 23:34N 40°43' W 073°59'3 2.7
2014-Oct-10 22:33N 40°43' W 074°02'  
Track history (hours):
 
Tides and Currents Weather Stations Pressure Air Temp Water Temp Dewpoint Dewpoint Depression Visibility Wind Speed Wind Dir Waves Ship Positions

John James Audubon

Owner: Statue Cruises, Jersey City, NJ. More information available from US FCC via Universal Licensing System and Coast Guard Vessel Documentation Center.

Last reported at 2014-Oct-20 22:25 UTC. Time now 2014-Oct-22 00:13 UTC.
Position N 40°44' W 074°01'.

Length 37 m.

Type: Ship. MMSI: 367400770.

Date/timePositionNaut miles runAvg speedWind from/ knotsBaromVisibWave heightAir tempDewpointWater temp
2014-Oct-20 22:25N 40°44' W 074°01'2 1.9
2014-Oct-20 21:34N 40°42' W 074°02'2 1.7
2014-Oct-20 20:33N 40°44' W 074°01'0 0.0
2014-Oct-19 21:33N 40°44' W 074°01'2 1.7
2014-Oct-19 20:33N 40°42' W 074°01'1 0.9
2014-Oct-19 19:31N 40°42' W 074°00'0 0.0
2014-Oct-19 18:33N 40°42' W 074°00'2 2.1
2014-Oct-19 17:34N 40°41' W 074°03'2 2.1
2014-Oct-19 16:33N 40°42' W 074°00'0 0.0
2014-Oct-19 15:33N 40°42' W 074°00'2 2.1
2014-Oct-19 14:34N 40°41' W 074°03'2 2.0
2014-Oct-19 13:33N 40°42' W 074°00'0 0.0
2014-Oct-18 21:33N 40°42' W 074°00'2 1.6
2014-Oct-18 20:33N 40°41' W 074°01'2 1.6
2014-Oct-18 19:33N 40°42' W 074°00'0 0.0
2014-Oct-18 18:33N 40°42' W 074°00'2 1.5
2014-Oct-18 17:33N 40°42' W 074°02'2 1.4
2014-Oct-18 16:29N 40°42' W 074°00'0 0.0
2014-Oct-18 15:30N 40°42' W 074°00'2 2.0
2014-Oct-18 14:33N 40°41' W 074°02'2 1.8
2014-Oct-18 13:30N 40°42' W 074°00'2 0.1
2014-Oct-17 22:11N 40°44' W 074°01'2 2.5
2014-Oct-17 21:33N 40°42' W 074°01'1 0.6
2014-Oct-17 20:33N 40°42' W 074°02'1 1.3
2014-Oct-17 19:33N 40°42' W 074°00'0 0.0
2014-Oct-17 18:33N 40°42' W 074°00'2 2.1
2014-Oct-17 17:33N 40°41' W 074°03'2 2.0
2014-Oct-17 16:33N 40°42' W 074°00'0 0.0
2014-Oct-17 15:33N 40°42' W 074°00'1 0.9
2014-Oct-17 14:33N 40°42' W 074°01'1 0.9
2014-Oct-17 13:33N 40°42' W 074°00'2 0.1
2014-Oct-16 21:28N 40°44' W 074°01'3 3.1
2014-Oct-16 20:34N 40°41' W 074°02'2 1.9
2014-Oct-16 19:33N 40°42' W 074°00'0 0.0
2014-Oct-16 18:33N 40°42' W 074°00'2 1.7
2014-Oct-16 17:33N 40°41' W 074°02'2 1.8
2014-Oct-16 16:33N 40°42' W 074°00'0 0.0
2014-Oct-16 15:33N 40°42' W 074°00'2 1.9
2014-Oct-16 14:33N 40°41' W 074°02'2 1.9
2014-Oct-16 13:33N 40°42' W 074°00'2 0.1
2014-Oct-15 21:30N 40°44' W 074°01'3 3.1
2014-Oct-15 20:32N 40°41' W 074°03'2 1.7
2014-Oct-15 19:18N 40°42' W 074°00'0 0.1
2014-Oct-15 18:32N 40°42' W 074°00'2 2.1
2014-Oct-15 17:33N 40°41' W 074°03'2 1.7
2014-Oct-15 16:19N 40°42' W 074°00'2 1.2
2014-Oct-15 14:33N 40°41' W 074°03'2 1.9
2014-Oct-15 13:27N 40°42' W 074°00'2 1.8
2014-Oct-15 12:33N 40°44' W 074°01'0 0.0
2014-Oct-14 21:27N 40°44' W 074°01'2 2.6
2014-Oct-14 20:34N 40°42' W 074°01'1 1.0
2014-Oct-14 19:20N 40°42' W 074°00'0 0.0
2014-Oct-14 18:29N 40°42' W 074°00'2 2.1
2014-Oct-14 17:31N 40°41' W 074°03'2 1.7
2014-Oct-14 16:21N 40°42' W 074°00'0 0.0
2014-Oct-14 15:15N 40°42' W 074°00'1 1.8
2014-Oct-14 14:31N 40°42' W 074°02'1 1.2
2014-Oct-14 13:23N 40°42' W 074°00'2 0.1
2014-Oct-13 21:32N 40°44' W 074°01'3 2.8
2014-Oct-13 20:27N 40°41' W 074°03'2 2.2
2014-Oct-13 19:31N 40°42' W 074°00'0 0.0
2014-Oct-13 18:30N 40°42' W 074°00'2 1.9
2014-Oct-13 17:26N 40°41' W 074°03'2 2.2
2014-Oct-13 16:31N 40°42' W 074°00'0 0.0
2014-Oct-13 15:31N 40°42' W 074°00'2 2.1
2014-Oct-13 14:32N 40°41' W 074°03'2 2.1
2014-Oct-13 13:32N 40°42' W 074°00'2 1.6
2014-Oct-13 12:33N 40°44' W 074°01'0 0.0
2014-Oct-12 05:08N 40°44' W 074°01'2 2.8
2014-Oct-12 04:33N 40°42' W 074°00'1 1.3
2014-Oct-12 03:33N 40°43' W 073°59'2 2.4
2014-Oct-12 02:33N 40°44' W 074°01'1 1.0
2014-Oct-12 01:33N 40°43' W 074°01'1 0.9
2014-Oct-12 00:33N 40°42' W 074°00'1 1.0
2014-Oct-11 23:33N 40°42' W 073°59'2 2.0
2014-Oct-11 22:33N 40°44' W 074°01'1 1.4
2014-Oct-11 21:33N 40°42' W 074°00'2 2.1
2014-Oct-11 20:33N 40°41' W 074°03'2 2.1
2014-Oct-11 19:33N 40°42' W 074°00'0 0.0
2014-Oct-11 18:33N 40°42' W 074°00'1 0.9
2014-Oct-11 17:33N 40°43' W 074°01'1 0.9
2014-Oct-11 16:33N 40°42' W 074°00'0 0.0
2014-Oct-11 15:33N 40°42' W 074°00'2 1.7
2014-Oct-11 14:33N 40°41' W 074°02'2 1.5
2014-Oct-11 13:33N 40°43' W 074°01'1 0.1
2014-Oct-11 04:33N 40°42' W 074°01'1 1.5
2014-Oct-11 03:33N 40°42' W 073°59'2 2.1
2014-Oct-11 02:34N 40°44' W 074°01'3 3.4
2014-Oct-11 01:33N 40°41' W 074°01'2 1.8
2014-Oct-11 00:33N 40°42' W 074°00'1 1.1
2014-Oct-10 23:34N 40°43' W 073°59'3 2.7
2014-Oct-10 22:33N 40°43' W 074°02'  

Dump ship's entire track history